Time;durP1;ratioP1;P1;durP2;ratioP2;P2;SDS_P1;SDS_P2;PMS_P1;PMS_P2;Temp;Humidity;BMP_temperature;BMP_pressure;BME280_temperature;BME280_humidity;BME280_pressure;Samples;Min_cycle;Max_cycle;Signal;HPM_P1;HPM_P2
2022/03/21 00:01:32;;;;;;;61.33;37.78;;;;;;;;;;5021782;28;20072;-80
2022/03/21 00:04:05;;;;;;;57.58;38.33;;;;;;;;;;5019495;28;20045;-80
2022/03/21 00:06:35;;;;;;;57.97;36.05;;;;;;;;;;5020309;28;20409;-80
2022/03/21 00:09:01;;;;;;;56.30;38.55;;;;;;;;;;5045241;28;20584;-80
2022/03/21 00:11:28;;;;;;;56.00;37.80;;;;;;;;;;5026538;28;20149;-80
2022/03/21 00:13:57;;;;;;;54.88;38.22;;;5.00;99.90;;;;;;5019813;28;20042;-80
2022/03/21 00:16:24;;;;;;;57.05;36.05;;;;;;;;;;4997391;28;20041;-80
2022/03/21 00:18:52;;;;;;;56.00;37.63;;;;;;;;;;5019653;28;20046;-80
2022/03/21 00:21:18;;;;;;;54.60;38.40;;;;;;;;;;5003910;28;20414;-80
2022/03/21 00:23:45;;;;;;;54.90;35.97;;;;;;;;;;5007630;28;20058;-80
2022/03/21 00:26:11;;;;;;;55.33;37.20;;;;;;;;;;4994513;28;20051;-80
2022/03/21 00:28:37;;;;;;;55.60;36.50;;;;;;;;;;4997383;28;20099;-80
2022/03/21 00:31:06;;;;;;;53.35;36.78;;;;;;;;;;5021422;28;20469;-80
2022/03/21 00:33:33;;;;;;;56.97;38.95;;;;;;;;;;4985251;28;20267;-80
2022/03/21 00:35:59;;;;;;;68.55;42.92;;;;;;;;;;5022065;28;20080;-80
2022/03/21 00:38:31;;;;;;;60.47;41.78;;;;;;;;;;5008868;28;20109;-80
2022/03/21 00:41:00;;;;;;;62.97;41.75;;;;;;;;;;5010406;28;20089;-80
2022/03/21 00:43:27;;;;;;;59.67;40.33;;;;;;;;;;5017631;28;20107;-80
2022/03/21 00:45:57;;;;;;;62.13;40.33;;;;;;;;;;4997448;28;20068;-80
2022/03/21 00:48:24;;;;;;;67.75;41.90;;;;;;;;;;5016975;28;20049;-80
2022/03/21 00:50:53;;;;;;;60.05;39.50;;;;;;;;;;5017955;28;20045;-81
2022/03/21 00:53:22;;;;;;;62.25;43.17;;;;;;;;;;5007651;28;20093;-80
2022/03/21 00:55:49;;;;;;;56.97;40.70;;;;;;;;;;5009286;28;20081;-81
2022/03/21 00:58:24;;;;;;;71.07;43.97;;;;;;;;;;4999831;28;20738;-80
2022/03/21 01:00:50;;;;;;;62.85;41.97;;;;;;;;;;5019007;28;20060;-81
2022/03/21 01:03:16;;;;;;;64.18;41.60;;;;;;;;;;4963091;28;20075;-81
2022/03/21 01:05:45;;;;;;;62.65;41.60;;;;;;;;;;5010606;28;20473;-80
2022/03/21 01:08:12;;;;;;;60.92;41.15;;;;;;;;;;5015971;28;20045;-81
2022/03/21 01:10:38;;;;;;;62.30;39.85;;;;;;;;;;5038236;28;20057;-81
2022/03/21 01:13:04;;;;;;;66.22;42.03;;;;;;;;;;5006223;28;20081;-80
2022/03/21 01:15:31;;;;;;;69.28;43.15;;;;;;;;;;5008354;28;20045;-81
2022/03/21 01:17:58;;;;;;;61.30;39.42;;;;;;;;;;4994639;28;20042;-81
2022/03/21 01:20:26;;;;;;;60.00;40.10;;;;;;;;;;5031308;28;20490;-80
2022/03/21 01:22:52;;;;;;;59.50;41.08;;;;;;;;;;5014140;28;20056;-82
2022/03/21 01:25:19;;;;;;;68.28;42.63;;;;;;;;;;5031133;28;20057;-81
2022/03/21 01:27:45;;;;;;;57.60;40.38;;;;;;;;;;5014581;28;20132;-81
2022/03/21 01:30:17;;;;;;;68.55;44.80;;;;;;;;;;5029627;28;20064;-81
2022/03/21 01:32:45;;;;;;;63.28;41.78;;;;;;;;;;5009538;28;20766;-81
2022/03/21 01:35:16;;;;;;;68.25;43.08;;;;;;;;;;5034496;28;20489;-81
2022/03/21 01:37:43;;;;;;;64.95;43.25;;;;;;;;;;5012477;28;20128;-81
2022/03/21 01:40:12;;;;;;;72.47;42.83;;;;;;;;;;5047077;28;20045;-81
2022/03/21 01:42:43;;;;;;;60.38;41.60;;;;;;;;;;5047535;28;20061;-81
2022/03/21 01:45:13;;;;;;;67.72;44.65;;;;;;;;;;5031036;28;20097;-81
2022/03/21 01:47:42;;;;;;;59.55;42.00;;;;;;;;;;5031917;28;20296;-81
2022/03/21 01:50:08;;;;;;;56.17;40.05;;;;;;;;;;4984473;28;20064;-81
2022/03/21 01:52:41;;;;;;;64.70;39.78;;;;;;;;;;5041171;28;20049;-81
2022/03/21 01:57:58;;;;;;;63.15;41.90;;;;;;;;;;5011025;28;20016;-81
2022/03/21 02:00:24;;;;;;;72.18;42.13;;;;;;;;;;5004391;28;20477;-81
2022/03/21 02:02:51;;;;;;;68.53;42.47;;;;;;;;;;5046073;28;20067;-81
2022/03/21 02:05:17;;;;;;;64.00;42.05;;;;;;;;;;5033665;28;20048;-81
2022/03/21 02:07:43;;;;;;;62.28;41.70;;;;;;;;;;4995591;28;20049;-81
2022/03/21 02:10:09;;;;;;;57.78;40.10;;;;;;;;;;5028494;28;20139;-81
2022/03/21 02:12:39;;;;;;;60.20;41.88;;;;;;;;;;5000365;28;20132;-81
2022/03/21 02:15:12;;;;;;;58.60;39.15;;;;;;;;;;4992176;28;20152;-81
2022/03/21 02:17:42;;;;;;;64.72;40.92;;;;;;;;;;5013651;28;20053;-81
2022/03/21 02:20:09;;;;;;;60.72;41.65;;;;;;;;;;5023836;28;20049;-81
2022/03/21 02:22:41;;;;;;;;;;;;;;;;;;5014260;28;20127;-81
2022/03/21 02:25:13;;;;;;;56.97;38.47;;;;;;;;;;5003144;28;19921;-81
2022/03/21 02:27:41;;;;;;;65.10;39.42;;;;;;;;;;5012087;28;20054;-81
2022/03/21 02:30:10;;;;;;;58.45;40.38;;;;;;;;;;5009717;28;20073;-81
2022/03/21 02:32:37;;;;;;;61.88;40.75;;;;;;;;;;5031357;28;20568;-81
2022/03/21 02:35:04;;;;;;;66.57;41.50;;;;;;;;;;5021457;28;20099;-80
2022/03/21 02:37:30;;;;;;;58.47;39.45;;;;;;;;;;5046600;28;20119;-81
2022/03/21 02:39:56;;;;;;;53.30;36.75;;;;;;;;;;5030042;28;20076;-81
2022/03/21 02:42:22;;;;;;;63.33;40.75;;;;;;;;;;5033403;28;20056;-81
2022/03/21 02:44:49;;;;;;;63.45;40.03;;;;;;;;;;5028913;28;20056;-81
2022/03/21 02:47:15;;;;;;;56.70;39.15;;;;;;;;;;5029294;28;20116;-81
2022/03/21 02:49:41;;;;;;;55.72;38.47;;;;;;;;;;5013826;28;20045;-81
2022/03/21 02:52:20;;;;;;;54.72;38.20;;;;;;;;;;5020457;28;20100;-81
2022/03/21 02:54:47;;;;;;;53.90;36.55;;;;;;;;;;5015575;28;20060;-81
2022/03/21 02:57:13;;;;;;;64.93;40.78;;;;;;;;;;5005644;28;20049;-81
2022/03/21 02:59:42;;;;;;;57.03;38.50;;;;;;;;;;5010581;28;20382;-81
2022/03/21 03:02:11;;;;;;;64.30;39.05;;;;;;;;;;5030314;28;20125;-81
2022/03/21 03:04:37;;;;;;;59.67;39.05;;;;;;;;;;5009273;28;20099;-81
2022/03/21 03:07:06;;;;;;;55.30;36.95;;;;;;;;;;5040483;28;20052;-81
2022/03/21 03:09:35;;;;;;;61.70;40.90;;;;;;;;;;5016916;28;20330;-81
2022/03/21 03:12:04;;;;;;;62.33;37.25;;;;;;;;;;5030509;28;20041;-81
2022/03/21 03:14:30;;;;;;;52.70;37.70;;;;;;;;;;5021057;28;20156;-81
2022/03/21 03:16:57;;;;;;;60.58;40.83;;;;;;;;;;4996823;28;20407;-81
2022/03/21 03:19:23;;;;;;;61.70;41.05;;;;;;;;;;5012939;28;20320;-81
2022/03/21 03:21:49;;;;;;;60.15;41.63;;;;;;;;;;5012356;28;20049;-81
2022/03/21 03:24:20;;;;;;;61.58;40.72;;;;;;;;;;4993138;28;20045;-81
2022/03/21 03:26:46;;;;;;;62.28;42.25;;;;;;;;;;5017470;28;20049;-81
2022/03/21 03:29:12;;;;;;;55.17;38.50;;;;;;;;;;5015787;28;20554;-80
2022/03/21 03:31:41;;;;;;;61.17;39.97;;;;;;;;;;5018520;28;20072;-80
2022/03/21 03:34:07;;;;;;;61.50;42.20;;;;;;;;;;5017125;28;20060;-82
2022/03/21 03:36:35;;;;;;;64.10;43.70;;;;;;;;;;5033640;28;20144;-80
2022/03/21 03:39:01;;;;;;;63.05;39.35;;;;;;;;;;5033579;28;20053;-80
2022/03/21 03:41:27;;;;;;;64.28;40.20;;;;;;;;;;5000438;28;20077;-80
2022/03/21 03:43:54;;;;;;;66.15;41.47;;;;;;;;;;5000140;28;20128;-80
2022/03/21 03:46:21;;;;;;;69.53;40.97;;;;;;;;;;5033088;28;20050;-80
2022/03/21 03:48:47;;;;;;;65.90;41.95;;;;;;;;;;5032678;28;20038;-80
2022/03/21 03:51:17;;;;;;;60.47;40.92;;;;;;;;;;5031165;28;20053;-80
2022/03/21 03:53:44;;;;;;;60.65;40.63;;;;;;;;;;5033738;28;20128;-80
2022/03/21 03:56:10;;;;;;;61.65;42.17;;;;;;;;;;4999618;28;20045;-80
2022/03/21 03:58:37;;;;;;;67.03;42.78;;;;;;;;;;5016010;28;20132;-80
2022/03/21 04:01:04;;;;;;;62.90;40.78;;;;;;;;;;5016372;28;20041;-80
2022/03/21 04:03:46;;;;;;;66.80;44.40;;;;;;;;;;5016578;28;20045;-80
2022/03/21 04:06:16;;;;;;;61.60;41.08;;;;;;;;;;5026806;28;20394;-80
2022/03/21 04:08:43;;;;;;;63.20;43.83;;;;;;;;;;5016034;28;20064;-80
2022/03/21 04:11:09;;;;;;;65.78;43.03;;;;;;;;;;5015939;28;20053;-80
2022/03/21 04:13:36;;;;;;;75.13;43.97;;;;;;;;;;5030542;28;20392;-80
2022/03/21 04:16:05;;;;;;;65.50;43.00;;;;;;;;;;4996826;28;20355;-80
2022/03/21 04:18:36;;;;;;;72.20;45.42;;;4.30;99.90;;;;;;4997108;28;20042;-80
2022/03/21 04:21:03;;;;;;;79.82;47.88;;;;;;;;;;5013977;28;20049;-81
2022/03/21 04:23:29;;;;;;;67.53;43.65;;;3.60;99.90;;;;;;5032581;28;20113;-80
2022/03/21 04:25:55;;;;;;;76.50;48.22;;;3.60;99.90;;;;;;5032517;28;20053;-80
2022/03/21 04:28:59;;;;;;;68.60;44.35;;;3.60;99.90;;;;;;4984130;28;20132;-80
2022/03/21 04:31:25;;;;;;;74.38;46.20;;;;;;;;;;5014281;28;20088;-80
2022/03/21 04:33:51;;;;;;;69.38;45.22;;;;;;;;;;5014714;28;20478;-80
2022/03/21 04:36:21;;;;;;;62.55;42.55;;;;;;;;;;4998185;28;20042;-80
2022/03/21 04:38:47;;;;;;;74.50;43.72;;;;;;;;;;5029410;28;20336;-80
2022/03/21 04:41:16;;;;;;;64.00;41.30;;;;;;;;;;5016823;28;20048;-80
2022/03/21 04:43:42;;;;;;;62.13;42.28;;;;;;;;;;5031979;28;20516;-80
2022/03/21 04:46:09;;;;;;;69.68;45.10;;;;;;;;;;5015878;28;20057;-80
2022/03/21 04:48:39;;;;;;;64.75;41.75;;;;;;;;;;5015447;28;20131;-80
2022/03/21 04:51:05;;;;;;;64.18;43.63;;;;;;;;;;4984916;28;20181;-81
2022/03/21 04:53:32;;;;;;;64.82;43.30;;;;;;;;;;5011770;28;20054;-81
2022/03/21 04:56:01;;;;;;;67.85;39.85;;;;;;;;;;5026358;28;20045;-81
2022/03/21 04:58:33;;;;;;;66.47;42.65;;;;;;;;;;4978205;28;20122;-81
2022/03/21 05:01:00;;;;;;;56.73;38.17;;;;;;;;;;5030992;28;20049;-81
2022/03/21 05:03:26;;;;;;;66.72;42.03;;;;;;;;;;5015211;28;20311;-81
2022/03/21 05:05:55;;;;;;;60.20;39.13;;;;;;;;;;5014798;28;20053;-82
2022/03/21 05:08:22;;;;;;;66.47;39.70;;;;;;;;;;5011179;28;20049;-81
2022/03/21 05:10:49;;;;;;;66.22;40.90;;;;;;;;;;5014922;28;20101;-81
2022/03/21 05:13:15;;;;;;;60.42;39.63;;;;;;;;;;4988649;28;20057;-82
2022/03/21 05:15:49;;;;;;;58.65;37.90;;;;;;;;;;4998663;28;20046;-81
2022/03/21 05:18:16;;;;;;;64.00;40.40;;;;;;;;;;5033174;28;20136;-81
2022/03/21 05:20:44;;;;;;;67.32;39.92;;;;;;;;;;5034116;28;20045;-82
2022/03/21 05:31:35;;;;;;;62.53;39.25;;;;;;;;;;5029931;28;20049;-82
2022/03/21 05:36:50;;;;;;;65.35;39.80;;;;;;;;;;5013908;28;20121;-82
2022/03/21 05:39:23;;;;;;;61.50;37.80;;;;;;;;;;5013546;28;20733;-81
2022/03/21 05:41:53;;;;;;;59.97;39.38;;;;;;;;;;5020924;28;20042;-83
2022/03/21 05:44:19;;;;;;;64.57;39.78;;;;;;;;;;5026283;28;20049;-83
2022/03/21 05:46:46;;;;;;;56.75;37.88;;;;;;;;;;5011498;28;20052;-81
2022/03/21 05:49:13;;;;;;;61.30;36.88;;;;;;;;;;5012242;28;20065;-80
2022/03/21 05:51:42;;;;;;;53.47;34.88;;;;;;;;;;5029015;28;20505;-81
2022/03/21 05:54:10;;;;;;;63.55;37.65;;;;;;;;;;4992769;28;20474;-84
2022/03/21 05:56:37;;;;;;;63.40;37.92;;;;;;;;;;5007402;28;20042;-82
2022/03/21 06:01:52;;;;;;;57.38;37.90;;;;;;;;;;5016754;28;20084;-82
2022/03/21 06:04:22;;;;;;;54.58;36.88;;;;;;;;;;5027424;28;20041;-83
2022/03/21 06:06:49;;;;;;;54.72;36.30;;;;;;;;;;5012980;28;20151;-83
2022/03/21 06:09:15;;;;;;;50.72;34.45;;;;;;;;;;5016027;28;20520;-83
2022/03/21 06:11:42;;;;;;;55.35;34.75;;;;;;;;;;5009101;28;20053;-83
2022/03/21 06:14:09;;;;;;;58.50;35.38;;;;;;;;;;5018987;28;20313;-84
2022/03/21 06:16:35;;;;;;;54.45;37.17;;;;;;;;;;5000739;28;20041;-84
2022/03/21 06:19:01;;;;;;;52.78;35.97;;;;;;;;;;5016390;28;20115;-84
2022/03/21 06:21:29;;;;;;;51.83;34.35;;;;;;;;;;4994672;28;20049;-84
2022/03/21 06:23:55;;;;;;;53.17;36.33;;;;;;;;;;5020555;28;20041;-84
2022/03/21 06:26:21;;;;;;;49.17;34.78;;;;;;;;;;5029535;28;20563;-83
2022/03/21 06:28:47;;;;;;;54.08;35.40;;;;;;;;;;5028632;28;20057;-84
2022/03/21 06:31:16;;;;;;;58.83;34.60;;;;;;;;;;4994500;28;20053;-84
2022/03/21 06:33:46;;;;;;;50.72;33.25;;;;;;;;;;4979696;28;20054;-84
2022/03/21 06:36:14;;;;;;;57.35;36.88;;;;;;;;;;5007293;28;20030;-86
2022/03/21 06:38:40;;;;;;;53.90;35.70;;;;;;;;;;5029138;28;20485;-83
2022/03/21 06:41:07;;;;;;;57.97;37.85;;;;;;;;;;5008513;28;20524;-82
2022/03/21 06:43:36;;;;;;;53.22;36.65;;;;;;;;;;5045783;28;20045;-83
2022/03/21 06:46:02;;;;;;;55.80;34.72;;;;;;;;;;4994355;28;20056;-83
2022/03/21 06:48:28;;;;;;;58.33;36.90;;;;;;;;;;5027563;28;20136;-83
2022/03/21 06:50:55;;;;;;;54.33;36.20;;;;;;;;;;5012408;28;20076;-83
2022/03/21 06:53:24;;;;;;;54.05;35.22;;;;;;;;;;5042296;28;20045;-83
2022/03/21 06:55:50;;;;;;;53.00;35.97;;;;;;;;;;5022244;28;20049;-83
2022/03/21 06:58:17;;;;;;;57.08;35.47;;;;;;;;;;5028520;28;20045;-84
2022/03/21 07:00:43;;;;;;;50.92;34.22;;;;;;;;;;5017623;28;20124;-84
2022/03/21 07:03:10;;;;;;;53.80;36.17;;;;;;;;;;5009600;28;20490;-84
2022/03/21 07:05:37;;;;;;;59.13;36.78;;;;;;;;;;4978408;28;20104;-84
2022/03/21 07:08:06;;;;;;;45.47;31.90;;;;;;;;;;4984740;28;20045;-84
2022/03/21 07:10:40;;;;;;;;;;;;;;;;;;5054553;28;20088;-82
2022/03/21 07:13:06;;;;;;;54.10;32.58;;;;;;;;;;5035512;28;19920;-84
2022/03/21 07:15:32;;;;;;;51.97;33.53;;;3.60;99.90;;;;;;5035757;28;20052;-84
2022/03/21 07:18:01;;;;;;;58.42;35.92;;;;;;;;;;5005684;28;20045;-83
2022/03/21 07:20:27;;;;;;;53.47;33.25;;;;;;;;;;5035550;28;20127;-82
2022/03/21 07:22:54;;;;;;;55.97;32.28;;;4.10;99.90;;;;;;5026658;28;20151;-82
2022/03/21 07:25:21;;;;;;;52.00;35.13;;;4.20;99.90;;;;;;4993266;28;20040;-84
2022/03/21 07:27:47;;;;;;;54.72;33.30;;;4.30;99.90;;;;;;4996528;28;20045;-84
2022/03/21 07:30:13;;;;;;;50.80;33.50;;;4.30;99.90;;;;;;5014380;28;20048;-84
2022/03/21 07:32:40;;;;;;;48.63;32.70;;;4.40;99.90;;;;;;4981758;28;20051;-84
2022/03/21 07:35:07;;;;;;;51.85;32.70;;;4.40;99.90;;;;;;5021713;28;20049;-84
2022/03/21 07:37:47;;;;;;;54.30;34.65;;;4.50;99.90;;;;;;5016519;28;20041;-84
2022/03/21 07:40:14;;;;;;;49.42;33.53;;;4.60;99.90;;;;;;4999239;28;20445;-84
2022/03/21 07:42:42;;;;;;;51.25;32.25;;;4.60;99.90;;;;;;5028638;28;20045;-84
2022/03/21 07:47:54;;;;;;;50.35;30.88;;;4.70;99.90;;;;;;5019294;28;20046;-83
2022/03/21 07:50:23;;;;;;;55.30;34.28;;;4.80;99.90;;;;;;5046268;28;20071;-83
2022/03/21 07:52:53;;;;;;;47.88;31.08;;;4.80;99.90;;;;;;5026776;28;20049;-83
2022/03/21 07:55:19;;;;;;;56.35;33.28;;;4.80;99.90;;;;;;4972436;28;20158;-84
2022/03/21 07:57:46;;;;;;;49.50;33.50;;;4.90;99.90;;;;;;5024356;28;20127;-84
2022/03/21 08:00:13;;;;;;;51.70;32.72;;;5.00;99.90;;;;;;5025077;28;20179;-84
2022/03/21 08:02:42;;;;;;;46.33;29.63;;;5.10;99.90;;;;;;5034511;28;20041;-82
2022/03/21 08:05:09;;;;;;;47.80;30.65;;;5.20;99.90;;;;;;5036991;28;20389;-82
2022/03/21 08:07:44;;;;;;;40.97;27.55;;;5.30;99.90;;;;;;5031706;28;20583;-83
2022/03/21 08:10:30;;;;;;;41.92;27.58;;;5.40;99.90;;;;;;5043567;28;20050;-83
2022/03/21 08:13:27;;;;;;;40.60;25.60;;;5.50;99.90;;;;;;5040352;28;20041;-83
2022/03/21 08:15:59;;;;;;;35.25;23.75;;;5.60;99.90;;;;;;5031625;28;20052;-82
2022/03/21 08:18:25;;;;;;;40.35;25.40;;;5.70;99.90;;;;;;5053601;28;20196;-82
2022/03/21 08:20:53;;;;;;;36.75;23.90;;;5.80;99.90;;;;;;5036866;28;20041;-81
2022/03/21 08:23:19;;;;;;;44.28;24.33;;;5.80;99.90;;;;;;5022073;28;20048;-82
2022/03/21 08:25:46;;;;;;;35.80;23.98;;;5.90;99.90;;;;;;5022340;28;20049;-83
2022/03/21 08:28:14;;;;;;;32.70;22.30;;;6.00;99.90;;;;;;4991350;28;20489;-83
2022/03/21 08:30:41;;;;;;;37.75;23.85;;;6.10;99.90;;;;;;5042975;28;20041;-83
2022/03/21 08:33:10;;;;;;;30.17;20.58;;;6.30;99.90;;;;;;5018360;28;20103;-83
2022/03/21 08:35:42;;;;;;;36.95;23.02;;;6.30;99.90;;;;;;5020414;28;20528;-83
2022/03/21 08:38:09;;;;;;;35.60;24.33;;;6.40;99.90;;;;;;5004751;28;20045;-83
2022/03/21 08:40:36;;;;;;;33.45;23.05;;;;;;;;;;5009790;28;20529;-83
2022/03/21 08:43:02;;;;;;;36.55;24.25;;;6.50;99.90;;;;;;5018140;28;20048;-83
2022/03/21 08:45:28;;;;;;;39.90;22.40;;;6.70;99.90;;;;;;5005371;28;20057;-83
2022/03/21 08:47:54;;;;;;;38.22;24.27;;;6.80;99.90;;;;;;5015268;28;20063;-83
2022/03/21 08:50:20;;;;;;;37.85;23.13;;;6.90;99.90;;;;;;5026621;28;20156;-83
2022/03/21 08:52:46;;;;;;;39.60;25.48;;;7.00;99.90;;;;;;5017318;28;20139;-83
2022/03/21 08:55:15;;;;;;;33.90;21.80;;;7.10;99.90;;;;;;4998292;28;20412;-83
2022/03/21 08:57:40;;;;;;;36.78;22.27;;;7.20;99.90;;;;;;5014711;28;20068;-83
2022/03/21 09:00:10;;;;;;;36.15;21.67;;;7.20;99.90;;;;;;5007824;28;20088;-83
2022/03/21 09:02:37;;;;;;;37.67;22.45;;;7.30;99.90;;;;;;5006837;28;20095;-83
2022/03/21 09:05:06;;;;;;;32.55;20.92;;;7.40;99.90;;;;;;5025822;28;20045;-82
2022/03/21 09:07:32;;;;;;;33.63;19.77;;;7.50;99.90;;;;;;5022791;28;20059;-82
2022/03/21 09:10:01;;;;;;;33.13;19.98;;;7.60;99.90;;;;;;5032613;28;20215;-81
2022/03/21 09:12:27;;;;;;;34.95;23.17;;;7.70;99.90;;;;;;5016635;28;20573;-80
2022/03/21 09:14:53;;;;;;;26.42;19.85;;;7.80;99.90;;;;;;5001829;28;20040;-81
2022/03/21 09:17:19;;;;;;;31.90;19.90;;;7.80;99.90;;;;;;5002001;28;20056;-81
2022/03/21 09:19:44;;;;;;;29.70;20.13;;;7.90;99.90;;;;;;5012631;28;20047;-81
2022/03/21 09:22:11;;;;;;;33.63;20.13;;;7.90;99.90;;;;;;5030383;28;20145;-81
2022/03/21 09:24:40;;;;;;;28.98;19.88;;;8.00;99.90;;;;;;5005868;28;20456;-81
2022/03/21 09:27:11;;;;;;;28.20;18.27;;;8.10;99.90;;;;;;5028316;28;20566;-80
2022/03/21 09:29:39;;;;;;;26.75;18.33;;;8.10;99.90;;;;;;5038234;28;20041;-81
2022/03/21 09:32:06;;;;;;;32.42;20.42;;;8.30;99.90;;;;;;5017384;28;20045;-81
2022/03/21 09:34:33;;;;;;;29.08;20.50;;;8.30;99.90;;;;;;5050171;28;20791;-81
2022/03/21 09:37:03;;;;;;;30.25;20.00;;;8.40;99.90;;;;;;5033932;28;20045;-81
2022/03/21 09:39:29;;;;;;;26.27;17.08;;;8.50;99.90;;;;;;5017521;28;20052;-81
2022/03/21 09:42:03;;;;;;;28.58;17.42;;;8.60;99.90;;;;;;5065237;28;20070;-81
2022/03/21 09:44:29;;;;;;;31.45;19.13;;;8.60;99.90;;;;;;5028000;28;20087;-80
2022/03/21 09:46:55;;;;;;;27.65;19.27;;;8.70;99.90;;;;;;4998058;28;20119;-80
2022/03/21 09:49:25;;;;;;;27.30;17.75;;;8.70;99.90;;;;;;5016730;28;20099;-80
2022/03/21 09:51:54;;;;;;;22.38;17.65;;;;;;;;;;5030333;28;20126;-80
2022/03/21 09:54:23;;;;;;;28.58;18.63;;;;;;;;;;5034255;28;20140;-80
2022/03/21 09:56:49;;;;;;;27.23;18.65;;;;;;;;;;5039718;28;20037;-79
2022/03/21 09:59:16;;;;;;;29.17;18.92;;;;;;;;;;5033322;28;20037;-80
2022/03/21 10:01:43;;;;;;;24.05;17.20;;;;;;;;;;5017274;28;20045;-80
2022/03/21 10:04:10;;;;;;;27.38;18.35;;;;;;;;;;5033497;28;20657;-80
2022/03/21 10:06:39;;;;;;;23.35;17.38;;;;;;;;;;5017309;28;20441;-80
2022/03/21 10:09:05;;;;;;;20.00;14.52;;;;;;;;;;5037095;28;20128;-83
2022/03/21 10:11:32;;;;;;;23.75;15.60;;;;;;;;;;5011164;28;20053;-80
2022/03/21 10:14:00;;;;;;;25.52;16.27;;;;;;;;;;4991177;28;20116;-80
2022/03/21 10:16:26;;;;;;;24.42;16.00;;;;;;;;;;5004738;28;20096;-80
2022/03/21 10:18:52;;;;;;;22.70;16.25;;;;;;;;;;5014617;28;20041;-81
2022/03/21 10:21:19;;;;;;;26.15;17.55;;;;;;;;;;4997369;28;20060;-80
2022/03/21 10:23:57;;;;;;;29.33;17.17;;;;;;;;;;5046870;28;20080;-81
2022/03/21 10:26:28;;;;;;;27.45;17.35;;;;;;;;;;4986352;28;20103;-80
2022/03/21 10:29:02;;;;;;;23.58;15.63;;;;;;;;;;5034122;28;20432;-80
2022/03/21 10:31:53;;;;;;;21.20;15.15;;;;;;;;;;5010053;28;20072;-79
2022/03/21 10:34:20;;;;;;;26.55;15.82;;;;;;;;;;5029772;28;20128;-79
2022/03/21 10:37:06;;;;;;;22.63;16.45;;;;;;;;;;5022919;28;20041;-79
2022/03/21 10:39:38;;;;;;;26.35;16.00;;;;;;;;;;5002060;28;20046;-78
2022/03/21 10:42:05;;;;;;;23.75;15.68;;;;;;;;;;4985812;28;20042;-78
2022/03/21 10:44:33;;;;;;;23.73;15.18;;;;;;;;;;5029875;28;20045;-78
2022/03/21 10:47:03;;;;;;;21.75;14.40;;;;;;;;;;5013913;28;20478;-78
2022/03/21 10:49:29;;;;;;;21.80;14.77;;;;;;;;;;5021074;28;20065;-78
2022/03/21 10:51:55;;;;;;;17.77;13.25;;;;;;;;;;5025755;28;20056;-78
2022/03/21 10:54:40;;;;;;;18.92;14.95;;;;;;;;;;5029165;28;20073;-79
2022/03/21 10:57:11;;;;;;;22.95;14.85;;;;;;;;;;5013071;28;20052;-78
2022/03/21 10:59:37;;;;;;;17.63;12.05;;;;;;;;;;5028913;28;20042;-79
2022/03/21 11:02:10;;;;;;;22.30;14.35;;;;;;;;;;5030497;28;20041;-78
2022/03/21 11:04:41;;;;;;;20.70;13.98;;;;;;;;;;5004272;28;20046;-81
2022/03/21 11:07:11;;;;;;;23.83;14.07;;;;;;;;;;5018307;28;20118;-83
2022/03/21 11:09:43;;;;;;;20.02;14.50;;;;;;;;;;5035834;28;20041;-83
2022/03/21 11:12:10;;;;;;;21.75;13.43;;;;;;;;;;5030377;28;20057;-83
2022/03/21 11:14:39;;;;;;;18.35;13.27;;;;;;;;;;5027355;28;20060;-83
2022/03/21 11:17:11;;;;;;;17.13;13.02;;;;;;;;;;5028282;28;20041;-80
2022/03/21 11:19:37;;;;;;;20.42;12.95;;;;;;;;;;5029799;28;20042;-80
2022/03/21 11:22:04;;;;;;;19.90;12.52;;;;;;;;;;5017692;28;20078;-80
2022/03/21 11:24:31;;;;;;;17.55;14.13;;;;;;;;;;4998820;28;20042;-80
2022/03/21 11:27:21;;;;;;;19.73;15.02;;;;;;;;;;5008025;28;20049;-80
2022/03/21 11:29:47;;;;;;;22.08;14.85;;;;;;;;;;5024364;28;20472;-80
2022/03/21 11:32:46;;;;;;;18.58;13.65;;;;;;;;;;4992514;28;20105;-79
2022/03/21 11:35:17;;;;;;;16.35;11.57;;;;;;;;;;4951058;28;20069;-80
2022/03/21 11:37:44;;;;;;;19.27;13.15;;;;;;;;;;5011622;28;20080;-77
2022/03/21 11:40:29;;;;;;;21.55;14.02;;;;;;;;;;5026652;28;20056;-82
2022/03/21 11:42:56;;;;;;;21.30;13.88;;;;;;;;;;5028952;28;20049;-81
2022/03/21 11:45:34;;;;;;;25.75;14.00;;;;;;;;;;5029843;28;20045;-81
2022/03/21 11:48:22;;;;;;;24.95;15.10;;;;;;;;;;5009751;28;20099;-80
2022/03/21 11:51:11;;;;;;;17.52;12.57;;;;;;;;;;5019247;28;20053;-79
2022/03/21 11:53:44;;;;;;;19.65;13.65;;;;;;;;;;5028309;28;20393;-80
2022/03/21 11:56:10;;;;;;;;;;;;;;;;;;5032059;28;20049;-80
2022/03/21 11:58:39;;;;;;;18.67;14.73;;;;;;;;;;5032236;28;20438;-80
2022/03/21 12:01:10;;;;;;;23.23;13.73;;;;;;;;;;5032195;28;20449;-80
2022/03/21 12:03:37;;;;;;;25.15;16.05;;;;;;;;;;5025004;28;20696;-80
2022/03/21 12:06:25;;;;;;;17.77;14.15;;;;;;;;;;5031883;28;20522;-80
2022/03/21 12:08:56;;;;;;;20.02;14.43;;;;;;;;;;5028287;28;20056;-80
2022/03/21 12:11:37;;;;;;;19.67;13.48;;;;;;;;;;5018048;28;20160;-80
2022/03/21 12:14:19;;;;;;;17.67;13.23;;;;;;;;;;5032386;28;20057;-80
2022/03/21 12:16:46;;;;;;;19.73;12.77;;;;;;;;;;5043001;28;20045;-80
2022/03/21 12:19:12;;;;;;;22.17;13.85;;;;;;;;;;5014218;28;20045;-80
2022/03/21 12:21:38;;;;;;;16.27;12.38;;;;;;;;;;5027556;28;20049;-80
2022/03/21 12:24:17;;;;;;;18.20;12.65;;;;;;;;;;4996046;28;20068;-80
2022/03/21 12:26:50;;;;;;;18.83;13.85;;;;;;;;;;5030313;28;20076;-80
2022/03/21 12:29:32;;;;;;;16.98;12.63;;;;;;;;;;4999076;28;20045;-80
2022/03/21 12:32:17;;;;;;;19.30;14.15;;;;;;;;;;5007224;28;20529;-80
2022/03/21 12:34:44;;;;;;;20.20;13.50;;;;;;;;;;5030382;28;20053;-80
2022/03/21 12:37:40;;;;;;;23.23;14.07;;;;;;;;;;5015786;28;20100;-80
2022/03/21 12:40:10;;;;;;;19.95;13.63;;;;;;;;;;5031139;28;20049;-80
2022/03/21 12:42:41;;;;;;;21.52;14.57;;;;;;;;;;5048636;28;20747;-80
2022/03/21 12:45:08;;;;;;;20.48;14.73;;;;;;;;;;5031456;28;20067;-80
2022/03/21 12:47:36;;;;;;;24.00;13.77;;;;;;;;;;5030781;28;20045;-80
2022/03/21 12:50:06;;;;;;;20.65;14.13;;;;;;;;;;5014781;28;20405;-80
2022/03/21 12:52:34;;;;;;;20.70;13.93;;;;;;;;;;5033594;28;20126;-80
2022/03/21 12:55:03;;;;;;;19.85;13.35;;;;;;;;;;5034792;28;20048;-80
2022/03/21 12:57:31;;;;;;;19.63;12.77;;;;;;;;;;5019455;28;20103;-80
2022/03/21 13:00:17;;;;;;;17.73;12.85;;;;;;;;;;5029259;28;20104;-80
2022/03/21 13:02:43;;;;;;;20.88;13.02;;;;;;;;;;4987627;28;20079;-80
2022/03/21 13:10:43;;;;;;;23.88;14.43;;;;;;;;;;5013638;28;20105;-80
2022/03/21 13:13:09;;;;;;;22.10;13.07;;;;;;;;;;5031095;28;20060;-80
2022/03/21 13:15:36;;;;;;;21.98;14.05;;;;;;;;;;5029938;28;20532;-80
2022/03/21 13:18:03;;;;;;;21.48;14.32;;;;;;;;;;4999029;28;21061;-81
2022/03/21 13:20:46;;;;;;;19.08;13.85;;;;;;;;;;5032492;28;20053;-84
2022/03/21 13:23:12;;;;;;;19.67;13.70;;;;;;;;;;5027684;28;20465;-84
2022/03/21 13:25:39;;;;;;;20.77;14.20;;;;;;;;;;5012026;28;20149;-83
2022/03/21 13:28:10;;;;;;;20.60;14.77;;;;;;;;;;5005858;28;20051;-81
2022/03/21 13:30:39;;;;;;;21.40;14.02;;;;;;;;;;5005199;28;20685;-81
2022/03/21 13:33:06;;;;;;;20.42;14.18;;;;;;;;;;5011619;28;20053;-81
2022/03/21 13:35:34;;;;;;;21.35;14.52;;;;;;;;;;5047153;28;20053;-80
2022/03/21 13:38:01;;;;;;;23.50;13.32;;;;;;;;;;5007223;28;20053;-80
2022/03/21 13:40:30;;;;;;;21.50;14.45;;;;;;;;;;5034366;28;20041;-80
2022/03/21 13:43:14;;;;;;;21.15;13.80;;;;;;;;;;5028617;28;20045;-80
2022/03/21 13:45:41;;;;;;;20.67;14.02;;;;;;;;;;5036665;28;20084;-84
2022/03/21 13:48:33;;;;;;;21.73;14.07;;;;;;;;;;5004075;28;20052;-84
2022/03/21 13:51:20;;;;;;;20.08;13.85;;;;;;;;;;5020566;28;20128;-84
2022/03/21 13:54:09;;;;;;;21.50;12.88;;;;;;;;;;5006801;28;20477;-84
2022/03/21 13:56:37;;;;;;;19.00;13.35;;;;;;;;;;5005491;28;20056;-79
2022/03/21 13:59:09;;;;;;;19.13;13.35;;;;;;;;;;5006133;28;20084;-79
2022/03/21 14:01:44;;;;;;;16.30;12.40;;;;;;;;;;5010820;28;20308;-80
2022/03/21 14:04:26;;;;;;;21.88;13.05;;;;;;;;;;5021821;28;20052;-80
2022/03/21 14:07:03;;;;;;;22.83;12.87;;;;;;;;;;5028759;28;20409;-80
2022/03/21 14:09:29;;;;;;;18.30;12.10;;;;;;;;;;5024145;28;20334;-80
2022/03/21 14:12:07;;;;;;;18.98;12.80;;;;;;;;;;5020921;28;20086;-82
2022/03/21 14:14:33;;;;;;;17.02;12.32;;;;;;;;;;5028724;28;20060;-82
2022/03/21 14:17:00;;;;;;;21.50;13.90;;;;;;;;;;5011155;28;20047;-78
2022/03/21 14:19:27;;;;;;;20.42;13.35;;;;;;;;;;5022088;28;20513;-78
2022/03/21 14:21:53;;;;;;;19.65;12.18;;;;;;;;;;5022389;28;20072;-81
2022/03/21 14:24:19;;;;;;;17.55;12.50;;;;;;;;;;5001817;28;20080;-82
2022/03/21 14:26:45;;;;;;;20.80;12.55;;;;;;;;;;5008804;28;20048;-81
2022/03/21 14:29:13;;;;;;;19.15;13.23;;;;;;;;;;5012009;28;20049;-81
2022/03/21 14:31:39;;;;;;;19.77;13.10;;;;;;;;;;5007389;28;20049;-81
2022/03/21 14:34:11;;;;;;;18.65;13.32;;;;;;;;;;5022499;28;20524;-80